Brookline Village, MA (02447)

3:35 AM EDT on November 01, 2014 (GMT -0400)
Fisher Hill | Change Station
CLOSE
Current Station
Personal Weather Station
Location: Brookline, MA
Elevation: 177 ft
Nearby Weather Stations

Elev 177 ft 42.33 °N, 71.14 °W | Updated 8 seconds ago

Overcast
Overcast
43.0 °F
Feels Like 41 °F
N
4.0
Wind Variable Wind from NNE
Gusts 7.0 mph

Today
High -- | Low -- °F
--% Chance of Precip.
Yesterday
High -- | Low -- °F
Precip. -- in
7:17 AM 5:37 PM
Waxing Gibbous, 64% visible
Pressure 29.93 in
Visibility 10.0 miles
Clouds Mostly Cloudy 9000 ft
Windchill 41 °F
Dew Point 36 °F
Humidity 75%
Rainfall 0.00 in
Snow Depth Not available.
UV 0 out of 12
Pollen .10 out of 12
Air Quality Not available.
Flu Activity Not available.
METAR KBOS 010654Z 01012KT 10SM BKN090 08/03 A2992 RMK AO2 SLP133 T00830028

More Conditions Fewer Conditions

Pressure 29.93 in
Visibility 10.0 miles
Clouds Mostly Cloudy 9000 ft
Windchill 41 °F
Dew Point 36 °F
Humidity 75%
Rainfall 0.00 in
Snow Depth Not available.
UV 0 out of 12
Pollen .10 out of 12
Air Quality Not available.
Flu Activity Not available.
METAR KBOS 010654Z 01012KT 10SM BKN090 08/03 A2992 RMK AO2 SLP133 T00830028

More Conditions Fewer Conditions

10-Day Weather Forecast

Almanac

Astronomy

Nov. 01, 2014 Rise Set
Actual Time
Civil Twilight
Nautical Twilight
Astronomical Twilight
Moon
Length of Visible Light
Length of Day
Tomorrow will be .
, % of the Moon is Illuminated

Today's Extremes

State Highs State Lows

Community

WunderPhotos

Upload Photos

1,766,866 photos uploaded!

WunderBlogs® & News

Nearby

Air Quality

  Air Quality AQ Index Pollutant
Not available.

Snow Depth

Station Depth Elevation

Earthquake Activity

City Distance Mag. Time & Date
Minimum magnitude displayed is 2.5.

Coastal Water Temperatures

Place Temperature

Nearby Weather Stations